Time;durP1;ratioP1;P1;durP2;ratioP2;P2;SDS_P1;SDS_P2;PMS_P1;PMS_P2;Temp;Humidity;BMP_temperature;BMP_pressure;BME280_temperature;BME280_humidity;BME280_pressure;Samples;Min_cycle;Max_cycle;Signal;HPM_P1;HPM_P2
2023/12/11 00:01:33;;;;;;;15.57;3.15;;;;;;;9.94;63.88;99707.13;4993838;28;20033;-38
2023/12/11 00:03:59;;;;;;;17.58;3.03;;;;;;;9.79;64.68;99702.97;5003499;28;20037;-38
2023/12/11 00:06:24;;;;;;;16.20;3.38;;;;;;;9.84;64.71;99706.13;5006651;28;20037;-40
2023/12/11 00:08:50;;;;;;;12.70;2.67;;;;;;;9.80;65.03;99696.78;5003632;28;20048;-39
2023/12/11 00:11:15;;;;;;;13.88;2.72;;;;;;;9.75;64.96;99684.84;5003443;28;20028;-37
2023/12/11 00:13:40;;;;;;;12.38;3.45;;;;;;;9.76;65.40;99693.53;5006004;28;21447;-41
2023/12/11 00:16:06;;;;;;;16.08;3.30;;;;;;;9.73;65.33;99697.22;5001987;28;20029;-40
2023/12/11 00:18:32;;;;;;;12.38;2.45;;;;;;;9.85;65.16;99694.66;5002206;28;20042;-41
2023/12/11 00:20:57;;;;;;;11.60;3.60;;;;;;;9.74;65.44;99684.91;4992898;28;20088;-40
2023/12/11 00:23:23;;;;;;;25.50;4.45;;;;;;;9.75;65.37;99676.94;4998270;28;20029;-39
2023/12/11 00:25:48;;;;;;;12.13;2.33;;;;;;;9.76;65.62;99683.84;5000041;28;20451;-38
2023/12/11 00:28:14;;;;;;;18.73;3.45;;;;;;;9.81;65.54;99673.03;5000400;28;20041;-38
2023/12/11 00:30:39;;;;;;;14.05;2.60;;;;;;;9.73;65.93;99672.72;5005390;28;20022;-39
2023/12/11 00:33:04;;;;;;;9.82;2.67;;;;;;;9.81;65.48;99673.03;5002400;28;20501;-39
2023/12/11 00:35:30;;;;;;;16.27;4.28;;;;;;;9.83;65.80;99662.41;5010104;28;20037;-38
2023/12/11 00:37:55;;;;;;;8.98;2.00;;;;;;;9.76;66.13;99660.22;4995075;28;20547;-38
2023/12/11 00:40:21;;;;;;;12.15;2.47;;;;;;;9.87;65.78;99650.75;5003671;28;20033;-38
2023/12/11 00:42:46;;;;;;;9.85;2.58;;;;;;;9.75;66.19;99637.53;5001943;28;20030;-39
2023/12/11 00:45:13;;;;;;;12.95;1.85;;;;;;;9.83;66.05;99642.22;4995383;28;20115;-38
2023/12/11 00:47:39;;;;;;;15.45;3.13;;;;;;;9.94;65.89;99636.19;5000828;28;20032;-39
2023/12/11 00:50:05;;;;;;;17.75;2.67;;;;;;;9.89;66.06;99627.81;4996813;28;20038;-39
2023/12/11 00:52:30;;;;;;;9.85;2.58;;;;;;;9.76;66.15;99644.44;5006469;28;20034;-42
2023/12/11 00:54:56;;;;;;;14.32;2.38;;;;;;;9.90;66.13;99624.25;5002647;28;20053;-39
2023/12/11 00:57:22;;;;;;;17.65;2.55;;;;;;;9.98;65.71;99624.50;5003693;28;20044;-40
2023/12/11 00:59:48;;;;;;;16.98;3.03;;;;;;;9.65;66.81;99623.38;5005722;28;20045;-41
2023/12/11 01:02:13;;;;;;;14.77;2.72;;;;;;;9.89;66.26;99615.50;5001690;28;20031;-42
2023/12/11 01:04:39;;;;;;;9.93;1.50;;;;;;;9.90;65.78;99611.09;5002929;28;20088;-39
2023/12/11 01:07:04;;;;;;;12.15;2.65;;;;;;;9.88;66.27;99611.19;4993721;28;20026;-39
2023/12/11 01:09:30;;;;;;;16.80;2.85;;;;;;;9.79;66.68;99613.66;4995806;28;20072;-39
2023/12/11 01:11:55;;;;;;;17.15;3.90;;;;;;;9.87;66.45;99616.56;4998271;28;20981;-38
2023/12/11 01:14:21;;;;;;;13.35;3.97;;;;;;;9.71;66.86;99612.44;4989856;28;20034;-39
2023/12/11 01:16:46;;;;;;;11.88;2.83;;;;;;;9.88;66.58;99613.81;4995202;28;20062;-38
2023/12/11 01:19:12;;;;;;;12.25;2.80;;;;;;;9.84;66.53;99611.53;4993858;28;20026;-40
2023/12/11 01:21:37;;;;;;;7.85;1.90;;;;;;;9.80;66.87;99610.06;4987996;28;20030;-39
2023/12/11 01:24:03;;;;;;;11.23;2.08;;;;;;;9.84;66.57;99606.28;4992531;28;20124;-40
2023/12/11 01:26:28;;;;;;;12.57;2.15;;;;;;;9.74;67.10;99600.84;4995019;28;20069;-38
2023/12/11 01:28:54;;;;;;;4.97;1.48;;;;;;;9.69;67.18;99603.81;4990819;28;20040;-39
2023/12/11 01:31:19;;;;;;;11.98;2.30;;;;;;;9.84;66.51;99596.59;5000059;28;20044;-40
2023/12/11 01:33:45;;;;;;;15.02;3.38;;;;;;;9.89;66.44;99593.66;4990922;28;20438;-38
2023/12/11 01:36:10;;;;;;;16.70;2.00;;;;;;;9.74;66.97;99585.94;4997569;28;20037;-39
2023/12/11 01:38:36;;;;;;;12.85;3.50;;;;;;;9.94;66.51;99586.25;4996832;28;20440;-38
2023/12/11 01:41:02;;;;;;;15.77;2.28;;;;;;;9.93;66.39;99584.56;5014620;28;20034;-41
2023/12/11 01:43:28;;;;;;;7.53;2.42;;;;;;;9.98;66.01;99582.47;5002420;28;20414;-39
2023/12/11 01:46:03;;;;;;;9.38;2.15;;;;;;;10.13;65.62;99582.28;5003921;28;20436;-39
2023/12/11 01:48:29;;;;;;;9.20;1.02;;;;;;;10.10;65.45;99579.88;5002121;28;20029;-39
2023/12/11 01:50:54;;;;;;;13.40;2.53;;;;;;;10.15;65.18;99569.84;4997692;28;20033;-38
2023/12/11 01:53:20;;;;;;;7.50;1.70;;;;;;;10.13;65.01;99566.50;5004337;28;20037;-41
2023/12/11 01:55:48;;;;;;;7.45;2.03;;;;;;;10.23;64.66;99562.22;5004016;28;20538;-39
2023/12/11 01:58:14;;;;;;;12.68;2.20;;;;;;;10.19;64.83;99568.69;4998235;28;20759;-40
2023/12/11 02:00:40;;;;;;;10.05;1.80;;;;;;;10.18;64.72;99551.25;5010860;28;20034;-38
2023/12/11 02:03:05;;;;;;;10.20;2.70;;;;;;;10.20;64.46;99544.91;5003583;28;20030;-37
2023/12/11 02:05:31;;;;;;;9.98;2.15;;;;;;;10.17;64.63;99545.13;4998859;28;20053;-41
2023/12/11 02:07:56;;;;;;;12.43;2.10;;;;;;;10.06;65.15;99543.28;5007823;28;20029;-38
2023/12/11 02:10:22;;;;;;;9.23;1.67;;;;;;;10.14;64.70;99529.56;4994012;28;20501;-41
2023/12/11 02:12:47;;;;;;;6.00;2.25;;;;;;;10.19;64.56;99522.19;5000439;28;20057;-38
2023/12/11 02:15:13;;;;;;;12.68;1.95;;;;;;;10.11;64.85;99518.47;5000555;28;20038;-39
2023/12/11 02:17:38;;;;;;;8.85;2.60;;;;;;;9.97;65.33;99517.72;4997587;28;20885;-40
2023/12/11 02:20:05;;;;;;;9.02;1.88;;;;;;;10.06;65.18;99516.19;4996902;28;20087;-38
2023/12/11 02:22:30;;;;;;;9.35;2.17;;;;;;;10.01;65.40;99510.44;4996597;28;20038;-40
2023/12/11 02:25:02;;;;;;;11.52;3.17;;;;;;;10.10;65.07;99495.75;5000420;28;20072;-42
2023/12/11 02:27:28;;;;;;;9.90;3.20;;;;;;;10.08;65.06;99490.63;5000636;28;20776;-40
2023/12/11 02:29:55;;;;;;;12.40;2.10;;;;;;;10.13;64.81;99477.13;4998599;28;20041;-41
2023/12/11 02:32:20;;;;;;;12.32;2.50;;;;;;;10.07;64.91;99474.00;5003759;28;20042;-38
2023/12/11 02:34:47;;;;;;;7.63;2.22;;;;;;;10.09;64.88;99465.16;5010296;28;20646;-41
2023/12/11 02:37:13;;;;;;;12.85;3.08;;;;;;;10.06;64.98;99448.69;4996956;28;20431;-40
2023/12/11 02:39:39;;;;;;;4.88;1.67;;;;;;;10.19;64.54;99451.22;5000626;28;20026;-38
2023/12/11 02:42:04;;;;;;;7.80;1.67;;;;;;;10.19;64.42;99450.41;5004304;28;20393;-40
2023/12/11 02:44:30;;;;;;;6.43;1.67;;;;;;;10.22;64.43;99437.00;5005826;28;20034;-42
2023/12/11 02:46:55;;;;;;;10.80;1.83;;;;;;;10.21;64.26;99440.56;5001782;28;20033;-39
2023/12/11 02:49:21;;;;;;;11.20;2.67;;;;;;;10.25;64.16;99425.41;5001076;28;20400;-39
2023/12/11 02:51:46;;;;;;;10.90;2.58;;;;;;;10.20;64.38;99420.53;4994586;28;20058;-40
2023/12/11 02:54:12;;;;;;;14.15;2.95;;;;;;;10.27;63.99;99413.00;5003225;28;20030;-38
2023/12/11 02:56:39;;;;;;;12.68;3.00;;;;;;;10.30;63.94;99412.72;5002262;28;20120;-41
2023/12/11 02:59:05;;;;;;;7.90;1.80;;;;;;;10.27;63.82;99408.56;5002864;28;20029;-41
2023/12/11 03:01:30;;;;;;;10.15;2.47;;;;;;;10.26;64.00;99393.75;4998984;28;20037;-41
2023/12/11 03:03:56;;;;;;;10.48;2.58;;;;;;;10.15;64.38;99394.56;4999359;28;20061;-38
2023/12/11 03:06:21;;;;;;;12.20;2.35;;;;;;;10.16;64.38;99390.16;5001700;28;20042;-38
2023/12/11 03:08:47;;;;;;;12.38;2.78;;;;;;;10.17;64.38;99389.22;5004814;28;20447;-40
2023/12/11 03:11:12;;;;;;;10.82;2.20;;;;;;;10.19;64.50;99379.41;4999118;28;20026;-39
2023/12/11 03:13:38;;;;;;;6.68;2.25;;;;;;;10.17;64.42;99378.69;5009313;28;20044;-40
2023/12/11 03:16:04;;;;;;;6.88;2.05;;;;;;;10.18;64.31;99378.56;5007450;28;20044;-39
2023/12/11 03:18:29;;;;;;;9.25;1.92;;;;;;;10.21;64.34;99369.59;5007678;28;20044;-41
2023/12/11 03:20:55;;;;;;;7.80;2.35;;;;;;;10.21;64.34;99370.44;5002334;28;20040;-38
2023/12/11 03:23:20;;;;;;;6.97;1.48;;;;;;;10.22;64.15;99363.38;5002482;28;20042;-40
2023/12/11 03:25:45;;;;;;;8.32;2.13;;;;;;;10.14;64.55;99366.59;5007334;28;20762;-42
2023/12/11 03:28:11;;;;;;;11.82;3.10;;;;;;;10.17;64.60;99357.66;5002032;28;20072;-40
2023/12/11 03:30:36;;;;;;;10.07;1.77;;;;;;;10.16;64.56;99348.09;5004048;28;20062;-39
2023/12/11 03:33:02;;;;;;;9.00;3.08;;;;;;;10.21;64.43;99345.94;5003835;28;20030;-40
2023/12/11 03:35:27;;;;;;;11.20;2.40;;;;;;;10.17;64.56;99341.91;5003535;28;20118;-39
2023/12/11 03:37:53;;;;;;;6.90;2.72;;;;;;;10.22;64.34;99334.47;5002554;28;20587;-39
2023/12/11 03:40:18;;;;;;;14.88;2.90;;;;;;;10.13;64.83;99333.44;5009070;28;20065;-40
2023/12/11 03:42:44;;;;;;;6.03;2.72;;;;;;;9.98;65.44;99340.69;5010097;28;20054;-39
2023/12/11 03:45:09;;;;;;;9.98;2.40;;;;;;;10.07;64.96;99339.97;5005012;28;20037;-38
2023/12/11 03:47:34;;;;;;;9.93;2.67;;;;;;;9.99;65.65;99337.13;5002126;28;20018;-40
2023/12/11 03:50:00;;;;;;;9.63;3.15;;;;;;;10.03;65.44;99330.69;5008362;28;20030;-38
2023/12/11 03:52:25;;;;;;;5.00;1.80;;;;;;;10.08;65.30;99325.06;5004865;28;20034;-38
2023/12/11 03:54:51;;;;;;;5.70;1.70;;;;;;;10.03;65.50;99333.31;5005013;28;20058;-39
2023/12/11 03:57:17;;;;;;;9.40;1.58;;;;;;;10.06;65.29;99317.28;5008330;28;20042;-40
2023/12/11 03:59:42;;;;;;;4.03;1.58;;;;;;;10.14;65.01;99316.66;5007620;28;20021;-38
2023/12/11 04:02:08;;;;;;;3.95;1.83;;;;;;;10.17;64.79;99312.97;5006928;28;20038;-38
2023/12/11 04:04:33;;;;;;;3.17;1.02;;;;;;;10.19;64.79;99316.34;5004555;28;20069;-39
2023/12/11 04:06:59;;;;;;;7.25;1.90;;;;;;;10.18;64.95;99319.91;5003603;28;20018;-40
2023/12/11 04:09:24;;;;;;;8.32;3.05;;;;;;;10.18;64.93;99312.03;5006883;28;20666;-38
2023/12/11 04:11:50;;;;;;;8.43;2.72;;;;;;;10.17;64.99;99318.25;5003089;28;20124;-39
2023/12/11 04:14:15;;;;;;;2.63;1.23;;;;;;;10.22;64.71;99313.44;5007123;28;20496;-40
2023/12/11 04:16:41;;;;;;;3.20;1.25;;;;;;;10.18;65.10;99306.78;5002890;28;20034;-38
2023/12/11 04:19:07;;;;;;;4.35;1.17;;;;;;;10.24;64.80;99314.16;5001858;28;20029;-38
2023/12/11 04:21:33;;;;;;;3.97;1.42;;;;;;;10.16;65.30;99316.56;5004674;28;20029;-39
2023/12/11 04:23:58;;;;;;;4.45;1.40;;;;;;;10.16;65.32;99311.31;5003872;28;20038;-39
2023/12/11 04:26:24;;;;;;;5.72;1.90;;;;;;;10.12;65.38;99307.25;5003483;28;20407;-40
2023/12/11 04:28:49;;;;;;;3.03;1.02;;;;;;;10.06;65.92;99308.56;5006340;28;20034;-38
2023/12/11 04:31:15;;;;;;;5.68;1.27;;;;;;;10.12;65.50;99315.13;5005134;28;20044;-39
2023/12/11 04:33:40;;;;;;;10.40;3.17;;;;;;;10.17;65.53;99318.25;5010476;28;20038;-40
2023/12/11 04:36:08;;;;;;;9.35;1.98;;;;;;;10.17;65.67;99318.25;5001483;28;20928;-38
2023/12/11 04:38:33;;;;;;;4.00;1.48;;;;;;;10.06;66.12;99326.97;4996156;28;20037;-40
2023/12/11 04:40:59;;;;;;;1.88;1.05;;;;;;;10.07;66.28;99320.75;4997669;28;20095;-39
2023/12/11 04:43:24;;;;;;;3.13;1.10;;;;;;;9.87;67.17;99311.81;5003868;28;20045;-41
2023/12/11 04:45:50;;;;;;;3.10;1.27;;;;;;;9.82;67.45;99319.19;5001661;28;20034;-39
2023/12/11 04:48:15;;;;;;;4.72;1.60;;;;;;;9.74;68.05;99317.16;5012408;28;20872;-40
2023/12/11 04:50:41;;;;;;;9.45;1.80;;;;;;;9.83;67.58;99320.88;4999358;28;20037;-40
2023/12/11 04:53:06;;;;;;;1.67;0.98;;;;;;;9.84;67.78;99322.53;5004494;28;20038;-39
2023/12/11 04:55:33;;;;;;;10.05;2.40;;;;;;;9.96;67.45;99320.75;5004546;28;20485;-40
2023/12/11 04:57:58;;;;;;;3.53;1.60;;;;;;;10.02;66.97;99333.41;5000579;28;20052;-39
2023/12/11 05:00:24;;;;;;;4.13;1.20;;;;;;;9.86;67.62;99329.34;4999524;28;20055;-40
2023/12/11 05:02:49;;;;;;;5.68;2.00;;;;;;;9.81;68.45;99330.66;4996779;28;20041;-40
2023/12/11 05:05:16;;;;;;;2.50;0.95;;;;;;;9.64;68.98;99335.41;4997819;28;20173;-40
2023/12/11 05:07:42;;;;;;;7.68;1.63;;;;;;;9.80;68.80;99342.97;4998618;28;20040;-41
2023/12/11 05:10:08;;;;;;;10.45;1.88;;;;;;;9.85;68.61;99329.47;5000710;28;20083;-39
2023/12/11 05:12:33;;;;;;;2.20;1.08;;;;;;;9.83;69.10;99336.63;5003579;28;20038;-42
2023/12/11 05:15:01;;;;;;;4.38;1.80;;;;;;;9.61;70.31;99333.88;5000564;28;20044;-40
2023/12/11 05:17:26;;;;;;;6.60;1.85;;;;;;;9.96;68.91;99332.09;5003060;28;20396;-41
2023/12/11 05:19:52;;;;;;;9.07;2.15;;;;;;;9.79;69.23;99345.69;5000623;28;20033;-40
2023/12/11 05:22:18;;;;;;;7.78;1.92;;;;;;;9.82;70.19;99341.06;4997013;28;20034;-38
2023/12/11 05:24:43;;;;;;;4.25;1.67;;;;;;;10.07;69.16;99345.22;4997144;28;20042;-42
2023/12/11 05:27:11;;;;;;;4.22;1.90;;;;;;;9.89;69.92;99339.63;4997542;28;20026;-40
2023/12/11 05:29:36;;;;;;;10.25;3.10;;;;;;;10.09;69.59;99345.13;4992852;28;20034;-39
2023/12/11 05:32:02;;;;;;;5.55;1.88;;;;;;;10.06;69.70;99348.81;4996396;28;20044;-40
2023/12/11 05:34:27;;;;;;;10.43;2.72;;;;;;;10.13;69.97;99338.69;4996013;28;20404;-40
2023/12/11 05:36:53;;;;;;;5.03;1.95;;;;;;;10.25;69.59;99341.28;5000735;28;20044;-40
2023/12/11 05:39:19;;;;;;;6.90;2.10;;;;;;;10.26;69.43;99346.41;5001941;28;20038;-41
2023/12/11 05:41:44;;;;;;;6.55;2.63;;;;;;;10.28;69.56;99352.41;5000811;28;20036;-40
2023/12/11 05:44:10;;;;;;;10.18;2.38;;;;;;;10.37;69.42;99343.78;5002098;28;20037;-39
2023/12/11 05:46:35;;;;;;;7.60;2.90;;;;;;;10.36;69.58;99349.97;5003436;28;20365;-40
2023/12/11 05:49:01;;;;;;;11.80;2.80;;;;;;;10.30;69.75;99349.63;5001876;28;20041;-40
2023/12/11 05:51:27;;;;;;;4.65;1.83;;;;;;;10.24;70.06;99353.59;4998294;28;20026;-42
2023/12/11 05:53:55;;;;;;;6.93;2.08;;;;;;;10.25;70.01;99352.63;5003984;28;20477;-39
2023/12/11 05:56:21;;;;;;;5.97;2.05;;;;;;;10.40;70.25;99352.41;5004153;28;20068;-40
2023/12/11 05:58:46;;;;;;;8.43;1.85;;;;;;;10.12;70.95;99362.44;5006871;28;20057;-40
2023/12/11 06:01:11;;;;;;;6.30;2.20;;;;;;;10.14;71.36;99363.16;5009215;28;20064;-42
2023/12/11 06:03:37;;;;;;;3.08;1.77;;;;;;;10.35;69.85;99353.59;5007267;28;20021;-39
2023/12/11 06:06:03;;;;;;;6.18;1.98;;;;;;;10.32;70.97;99351.19;5007432;28;20038;-42
2023/12/11 06:08:28;;;;;;;3.88;1.30;;;;;;;10.22;71.31;99347.59;5006026;28;20407;-39
2023/12/11 06:10:54;;;;;;;5.07;1.45;;;;;;;10.17;71.74;99352.41;5001896;28;20140;-39
2023/12/11 06:13:19;;;;;;;3.03;1.63;;;;;;;10.48;70.85;99352.66;5004366;28;20051;-40
2023/12/11 06:15:45;;;;;;;4.00;1.65;;;;;;;10.30;71.06;99350.50;5014694;28;20050;-42
2023/12/11 06:18:10;;;;;;;7.50;1.80;;;;;;;10.61;70.03;99355.13;5009702;28;20037;-40
2023/12/11 06:20:36;;;;;;;3.72;1.55;;;;;;;10.68;69.68;99353.69;5005355;28;20588;-39
2023/12/11 06:23:02;;;;;;;2.65;1.50;;;;;;;10.72;69.89;99354.25;5007631;28;20038;-39
2023/12/11 06:25:27;;;;;;;5.57;1.40;;;;;;;10.74;70.01;99357.59;5005922;28;20116;-40
2023/12/11 06:27:53;;;;;;;3.55;1.38;;;;;;;10.63;69.93;99356.69;4999741;28;20023;-41
2023/12/11 06:30:18;;;;;;;5.57;1.67;;;;;;;10.72;69.73;99367.41;5000091;28;20133;-40
2023/12/11 06:32:44;;;;;;;4.80;1.55;;;;;;;10.80;69.06;99372.91;5002180;28;20049;-39
2023/12/11 06:35:09;;;;;;;4.20;1.33;;;;;;;10.87;68.82;99368.81;5003540;28;20030;-40
2023/12/11 06:37:35;;;;;;;6.45;1.25;;;;;;;10.82;69.14;99369.19;5000882;28;20100;-40
2023/12/11 06:40:00;;;;;;;5.95;1.50;;;;;;;10.71;70.16;99368.38;4997498;28;20030;-39
2023/12/11 06:42:26;;;;;;;6.20;2.15;;;;;;;10.73;69.34;99377.84;5002772;28;20038;-42
2023/12/11 06:44:53;;;;;;;7.07;1.73;;;;;;;10.74;69.90;99390.00;5010456;28;20030;-41
2023/12/11 06:47:18;;;;;;;4.57;1.38;;;;;;;10.81;69.63;99385.13;4998554;28;20491;-42
2023/12/11 06:49:46;;;;;;;5.68;1.55;;;;;;;10.74;70.21;99383.91;4997959;28;20021;-39
2023/12/11 06:52:12;;;;;;;10.63;2.95;;;;;;;10.98;69.46;99395.09;5005266;28;20034;-40
2023/12/11 06:54:38;;;;;;;6.57;1.90;;;;;;;10.92;69.54;99397.38;5006220;28;20121;-41
2023/12/11 06:57:04;;;;;;;7.50;1.58;;;;;;;11.07;69.05;99390.06;5004601;28;20116;-41
2023/12/11 06:59:30;;;;;;;9.05;2.47;;;;;;;11.09;68.42;99393.41;5005906;28;20041;-39
2023/12/11 07:01:55;;;;;;;5.50;1.98;;;;;;;10.91;69.31;99399.19;5004208;28;20064;-38
2023/12/11 07:04:21;;;;;;;9.27;2.45;;;;;;;10.84;69.97;99398.00;5002300;28;20121;-40
2023/12/11 07:06:46;;;;;;;5.30;2.20;;;;;;;11.04;69.54;99396.38;4997175;28;20038;-41
2023/12/11 07:09:11;;;;;;;10.38;2.53;;;;;;;11.12;69.09;99403.66;5001630;28;20037;-42
2023/12/11 07:11:37;;;;;;;10.38;2.58;;;;;;;11.11;68.95;99416.00;4994909;28;20037;-39
2023/12/11 07:14:02;;;;;;;7.22;2.10;;;;;;;11.02;69.27;99413.28;5000240;28;20577;-40
2023/12/11 07:16:28;;;;;;;8.35;2.58;;;;;;;11.07;69.03;99411.94;5003790;28;20089;-42
2023/12/11 07:18:54;;;;;;;12.90;1.90;;;;;;;11.08;68.64;99416.25;5002802;28;20034;-40
2023/12/11 07:21:19;;;;;;;11.73;1.90;;;;;;;11.05;68.82;99418.28;5002665;28;20026;-41
2023/12/11 07:23:48;;;;;;;16.45;2.53;;;;;;;11.22;68.54;99419.53;5020018;28;20075;-39
2023/12/11 07:26:13;;;;;;;6.68;2.15;;;;;;;11.28;68.36;99419.06;5003990;28;20026;-40
2023/12/11 07:28:38;;;;;;;9.30;1.90;;;;;;;11.16;68.33;99415.63;5003150;28;20080;-39
2023/12/11 07:31:05;;;;;;;8.30;1.77;;;;;;;11.23;68.28;99421.22;4992149;28;20034;-39
2023/12/11 07:33:31;;;;;;;11.98;2.38;;;;;;;11.22;68.12;99425.66;5001566;28;20489;-40
2023/12/11 07:35:57;;;;;;;12.48;1.92;;;;;;;11.19;68.48;99425.09;5006592;28;20033;-41
2023/12/11 07:38:24;;;;;;;6.70;2.05;;;;;;;11.42;67.94;99431.06;4999968;28;20040;-41
2023/12/11 07:40:52;;;;;;;12.30;1.77;;;;;;;11.27;68.33;99433.19;5002826;28;20044;-39
2023/12/11 07:43:17;;;;;;;15.07;2.15;;;;;;;11.13;68.97;99431.66;4996597;28;20088;-39
2023/12/11 07:45:43;;;;;;;6.22;1.40;;;;;;;11.27;67.71;99428.72;5004165;28;20033;-39
2023/12/11 07:48:08;;;;;;;13.50;2.38;;;;;;;11.28;67.90;99443.56;5004225;28;20038;-39
2023/12/11 07:50:34;;;;;;;11.05;1.77;;;;;;;11.27;67.98;99441.91;4992719;28;20036;-42
2023/12/11 07:52:59;;;;;;;17.77;2.33;;;;;;;11.38;67.82;99442.84;4995288;28;20104;-39
2023/12/11 07:55:24;;;;;;;14.15;2.65;;;;;;;11.44;67.38;99440.53;4997269;28;20042;-40
2023/12/11 07:57:50;;;;;;;13.07;2.25;;;;;;;11.51;67.53;99445.28;4997326;28;20113;-41
2023/12/11 08:00:15;;;;;;;13.95;2.08;;;;;;;11.49;67.53;99452.50;4999395;28;20027;-39
2023/12/11 08:02:41;;;;;;;12.88;2.47;;;;;;;11.48;67.95;99454.28;5000432;28;20497;-38
2023/12/11 08:05:07;;;;;;;15.57;4.53;;;;;;;11.68;67.08;99446.53;4993561;28;20022;-40
2023/12/11 08:07:33;;;;;;;18.50;3.88;;;;;;;11.56;67.32;99449.22;5005781;28;20034;-41
2023/12/11 08:09:59;;;;;;;12.43;2.50;;;;;;;11.76;66.98;99443.25;4997914;28;20038;-39
2023/12/11 08:12:25;;;;;;;16.55;3.67;;;;;;;11.67;67.09;99439.59;4998332;28;20038;-40
2023/12/11 08:14:50;;;;;;;12.20;2.13;;;;;;;11.64;67.07;99442.47;5008714;28;20500;-39
2023/12/11 08:17:15;;;;;;;19.20;3.13;;;;;;;11.76;66.66;99445.91;5007729;28;20680;-40
2023/12/11 08:19:41;;;;;;;12.75;3.08;;;;;;;11.58;67.38;99452.56;5003668;28;20034;-40
2023/12/11 08:22:06;;;;;;;16.60;3.30;;;;;;;11.37;67.95;99451.69;5006532;28;20029;-39
2023/12/11 08:24:32;;;;;;;14.70;2.90;;;;;;;11.57;67.81;99450.06;5009417;28;20087;-39
2023/12/11 08:26:57;;;;;;;17.38;2.55;;;;;;;11.41;67.82;99439.97;5007432;28;20037;-40
2023/12/11 08:29:23;;;;;;;15.82;2.42;;;;;;;11.43;68.33;99443.28;5000449;28;20045;-38
2023/12/11 08:31:49;;;;;;;20.52;3.90;;;;;;;11.52;68.16;99442.53;5008010;28;20435;-40
2023/12/11 08:34:15;;;;;;;10.63;2.92;;;;;;;11.29;68.57;99453.16;5006546;28;20531;-39
2023/12/11 08:36:40;;;;;;;12.50;2.22;;;;;;;11.09;68.96;99441.59;5003037;28;20080;-39
2023/12/11 08:39:06;;;;;;;11.20;2.80;;;;;;;11.36;68.45;99447.41;5005871;28;20084;-41
2023/12/11 08:41:33;;;;;;;10.32;2.17;;;;;;;11.26;67.93;99458.69;4997406;28;20397;-42
2023/12/11 08:43:58;;;;;;;13.18;2.95;;;;;;;11.23;68.68;99458.94;5003681;28;20065;-44
2023/12/11 08:46:24;;;;;;;11.02;2.28;;;;;;;11.27;67.87;99464.78;5006772;28;20062;-40
2023/12/11 08:48:50;;;;;;;9.10;2.50;;;;;;;11.25;67.92;99451.75;5006024;28;20030;-41
2023/12/11 08:51:19;;;;;;;6.88;1.60;;;;;;;10.82;69.50;99456.03;5001200;28;21148;-39
2023/12/11 08:53:45;;;;;;;7.22;1.60;;;;;;;10.75;68.92;99459.25;5005599;28;20504;-40
2023/12/11 08:56:13;;;;;;;10.02;1.33;;;;;;;11.07;67.94;99453.22;4997988;28;20036;-39
2023/12/11 08:58:39;;;;;;;13.10;1.05;;;;;;;10.75;68.53;99469.78;4999859;28;20022;-40
2023/12/11 09:01:05;;;;;;;6.15;0.90;;;;;;;10.76;69.33;99469.66;5004397;28;20647;-39
2023/12/11 09:03:31;;;;;;;3.00;0.60;;;;;;;10.77;68.86;99476.59;5002881;28;20022;-41
2023/12/11 09:05:56;;;;;;;7.60;1.02;;;;;;;10.58;68.96;99474.56;5007907;28;20053;-39
2023/12/11 09:08:22;;;;;;;5.95;0.90;;;;;;;10.33;69.38;99470.34;5006752;28;20080;-40
2023/12/11 09:10:47;;;;;;;1.88;0.57;;;;;;;9.89;71.36;99472.78;5006599;28;20080;-41
2023/12/11 09:13:13;;;;;;;2.63;0.52;;;;;;;10.41;70.49;99467.16;5001207;28;20026;-39
2023/12/11 09:15:38;;;;;;;3.65;0.60;;;;;;;10.18;71.01;99464.50;5004917;28;20048;-41
2023/12/11 09:18:05;;;;;;;2.60;0.60;;;;;;;10.32;70.33;99468.66;5008785;28;20037;-38
2023/12/11 09:20:30;;;;;;;1.38;0.40;;;;;;;9.88;71.40;99471.13;4997553;28;20100;-40
2023/12/11 09:22:56;;;;;;;3.20;0.82;;;;;;;10.20;71.03;99473.09;5005509;28;20037;-39
2023/12/11 09:25:21;;;;;;;6.13;0.68;;;;;;;10.26;70.67;99479.69;5008353;28;20026;-39
2023/12/11 09:27:47;;;;;;;3.20;0.50;;;;;;;10.65;69.62;99467.88;5004902;28;20666;-38
2023/12/11 09:30:12;;;;;;;3.58;0.82;;;;;;;10.75;69.33;99464.53;5008906;28;20753;-39
2023/12/11 09:32:38;;;;;;;2.67;0.30;;;;;;;10.58;69.93;99479.84;4996275;28;20107;-40
2023/12/11 09:35:04;;;;;;;2.97;0.90;;;;;;;10.55;70.31;99464.28;5003036;28;20516;-38
2023/12/11 09:37:30;;;;;;;6.68;1.35;;;;;;;10.74;70.10;99471.56;5005732;28;20029;-39
2023/12/11 09:39:55;;;;;;;4.18;1.58;;;;;;;10.96;69.33;99470.72;5006447;28;20092;-39
2023/12/11 09:42:21;;;;;;;7.57;1.75;;;;;;;10.97;68.86;99475.00;5009604;28;20038;-40
2023/12/11 09:44:47;;;;;;;5.18;1.80;;;;;;;10.91;69.26;99467.63;5010083;28;20511;-40
2023/12/11 09:47:28;;;;;;;4.72;1.33;;;;;;;11.19;68.68;99478.56;5000819;28;20022;-39
2023/12/11 09:49:54;;;;;;;3.75;1.42;;;;;;;11.33;67.77;99468.69;5020816;28;20056;-40
2023/12/11 09:52:24;;;;;;;3.70;1.30;;;;;;;11.26;67.85;99476.25;5019176;28;20196;-38
2023/12/11 09:54:49;;;;;;;11.30;1.60;;;;;;;11.44;67.95;99481.81;5007750;28;20030;-38
2023/12/11 09:57:16;;;;;;;5.35;1.80;;;;;;;11.44;67.86;99476.56;5005838;28;20018;-40
2023/12/11 09:59:43;;;;;;;11.02;2.05;;;;;;;11.39;68.24;99473.47;5009932;28;20040;-39
2023/12/11 10:02:17;;;;;;;7.00;1.83;;;;;;;11.62;67.55;99473.38;5006619;28;20060;-39
2023/12/11 10:05:04;;;;;;;5.82;1.80;;;;;;;11.61;67.59;99469.06;4999242;28;20025;-40
2023/12/11 10:07:34;;;;;;;8.52;2.05;;;;;;;11.66;67.80;99469.53;5002351;28;20038;-39
2023/12/11 10:10:22;;;;;;;10.40;2.25;;;;;;;11.55;68.12;99458.09;5003442;28;20092;-41
2023/12/11 10:12:48;;;;;;;15.70;3.15;;;;;;;11.61;68.33;99455.91;5005540;28;20039;-41
2023/12/11 10:15:46;;;;;;;14.32;2.72;;;;;;;11.55;68.63;99455.47;5003546;28;20034;-45
2023/12/11 10:18:12;;;;;;;14.75;2.63;;;;;;;11.50;68.66;99455.00;5025273;28;20870;-41
2023/12/11 10:20:40;;;;;;;15.07;3.15;;;;;;;11.61;68.00;99450.63;4992767;28;20034;-42
2023/12/11 10:23:14;;;;;;;11.52;3.10;;;;;;;11.48;68.15;99456.09;4996623;28;20124;-40
2023/12/11 10:25:48;;;;;;;14.10;3.03;;;;;;;11.57;68.21;99442.16;5004042;28;20034;-42
2023/12/11 10:28:15;;;;;;;14.95;2.75;;;;;;;11.51;68.13;99443.50;4999120;28;20027;-40
2023/12/11 10:30:49;;;;;;;9.95;2.72;;;;;;;11.52;68.24;99447.81;5005759;28;20121;-43
2023/12/11 10:33:16;;;;;;;11.90;2.17;;;;;;;11.18;69.01;99441.84;5004690;28;20389;-39
2023/12/11 10:35:41;;;;;;;14.07;2.58;;;;;;;11.33;68.36;99451.13;5004964;28;20029;-41
2023/12/11 10:38:07;;;;;;;17.92;3.47;;;;;;;11.32;68.40;99438.91;5006059;28;20628;-39
2023/12/11 10:40:40;;;;;;;15.32;2.53;;;;;;;11.40;68.00;99431.22;5000710;28;20981;-42
2023/12/11 10:43:05;;;;;;;16.23;2.08;;;;;;;11.51;67.84;99438.22;5005255;28;20034;-40
2023/12/11 10:45:32;;;;;;;9.50;2.35;;;;;;;11.48;67.69;99429.75;4996428;28;20520;-41
2023/12/11 10:47:59;;;;;;;10.45;1.98;;;;;;;11.50;68.21;99422.53;5001986;28;20030;-41
2023/12/11 10:50:25;;;;;;;7.68;2.25;;;;;;;11.45;68.26;99436.09;5002547;28;20103;-42
2023/12/11 10:52:50;;;;;;;11.98;2.10;;;;;;;11.43;67.76;99432.75;5001530;28;20034;-40
2023/12/11 10:55:16;;;;;;;14.48;3.10;;;;;;;11.64;68.00;99437.22;4996882;28;20022;-40
2023/12/11 10:57:43;;;;;;;10.73;2.80;;;;;;;11.72;67.68;99427.69;5002177;28;20117;-40
2023/12/11 11:00:14;;;;;;;14.00;3.17;;;;;;;11.83;66.98;99429.44;5000333;28;20049;-41
2023/12/11 11:02:46;;;;;;;11.95;2.13;;;;;;;11.49;67.32;99432.25;5002940;28;20044;-41
2023/12/11 11:05:12;;;;;;;;;;;;;;;11.53;67.70;99428.41;5005549;28;20029;-40
2023/12/11 11:07:46;;;;;;;10.93;3.10;;;;;;;11.57;67.80;99419.25;5008425;28;19917;-40
2023/12/11 11:10:20;;;;;;;14.20;3.70;;;;;;;11.44;67.69;99423.88;5001193;28;20044;-41
2023/12/11 11:13:10;;;;;;;13.63;2.08;;;;;;;11.58;67.77;99423.56;5002921;28;20644;-40
2023/12/11 11:15:36;;;;;;;7.55;1.63;;;;;;;11.47;68.04;99423.63;5001596;28;20022;-45
2023/12/11 11:18:05;;;;;;;12.77;2.85;;;;;;;11.46;68.04;99415.88;4998639;28;20094;-40
2023/12/11 11:20:32;;;;;;;9.88;2.20;;;;;;;11.63;67.70;99423.22;5002117;28;20030;-41
2023/12/11 11:23:18;;;;;;;11.52;1.92;;;;;;;11.79;66.93;99417.47;4996462;28;20578;-39
2023/12/11 11:25:54;;;;;;;12.85;2.40;;;;;;;11.57;67.92;99429.81;5002625;28;20038;-41
2023/12/11 11:28:40;;;;;;;14.80;1.98;;;;;;;11.54;67.83;99418.69;5000002;28;20768;-39